EGGD/BRS METAR and TAF weather

Enter ICAO airport designator
Station Type Date Time Source
EGGD METAR 2020/09/26 22:50 UTC NOAA

EGGD 262250Z AUTO 33008KT 9999 OVC035 09/04 Q1016


Station Type Date Time Source
EGGD Decoded METAR 2020/09/26 22:50 UTC NOAA

Bristol / Lulsgate , United Kingdom (EGGD) 51-23N 002-43W
Sep 26, 2020 - 06:50 PM EDT / 2020.09.26 2250 UTC
Wind: from the NNW (330 degrees) at 9 MPH (8 KT):0
Visibility: greater than 7 mile(s):0
Sky conditions: overcast
Temperature: 48 F (9 C)
Dew Point: 39 F (4 C)
Relative Humidity: 70%
Pressure (altimeter): 30.00 in. Hg (1016 hPa)
ob: EGGD 262250Z AUTO 33008KT 9999 OVC035 09/04 Q1016
cycle: 23

Station Type Date Time Source
EGGD TAF 2020/09/26 18:09 UTC NOAA

TAF EGGD 261657Z 2618/2718 34015KT 9999 FEW040 PROB40 2704/2708 32005KT

Example: see airport list